sensor_id;sensor_type;location;lat;lon;timestamp;temperature;humidity
17252;DHT22;8742;51.716;8.790;2024-03-23T00:55:42;7.40;99.90
17252;DHT22;8742;51.716;8.790;2024-03-23T00:58:08;7.30;99.90
17252;DHT22;8742;51.716;8.790;2024-03-23T01:00:34;7.30;99.90
17252;DHT22;8742;51.716;8.790;2024-03-23T01:03:01;7.30;99.90
17252;DHT22;8742;51.716;8.790;2024-03-23T01:05:27;7.20;99.90
17252;DHT22;8742;51.716;8.790;2024-03-23T01:07:54;7.20;99.90
17252;DHT22;8742;51.716;8.790;2024-03-23T01:10:20;7.20;99.90
17252;DHT22;8742;51.716;8.790;2024-03-23T01:12:48;7.10;99.90
17252;DHT22;8742;51.716;8.790;2024-03-23T01:15:14;7.10;99.90
17252;DHT22;8742;51.716;8.790;2024-03-23T01:17:41;7.10;99.90
17252;DHT22;8742;51.716;8.790;2024-03-23T01:20:07;7.00;99.90
17252;DHT22;8742;51.716;8.790;2024-03-23T01:22:34;7.00;99.90
17252;DHT22;8742;51.716;8.790;2024-03-23T01:25:00;7.00;99.90
17252;DHT22;8742;51.716;8.790;2024-03-23T01:27:27;7.00;99.90
17252;DHT22;8742;51.716;8.790;2024-03-23T01:29:54;6.90;99.90
17252;DHT22;8742;51.716;8.790;2024-03-23T01:32:21;6.90;99.90
17252;DHT22;8742;51.716;8.790;2024-03-23T01:34:47;6.90;99.90
17252;DHT22;8742;51.716;8.790;2024-03-23T01:37:14;6.90;99.90
17252;DHT22;8742;51.716;8.790;2024-03-23T01:39:40;6.90;99.90
17252;DHT22;8742;51.716;8.790;2024-03-23T01:42:06;6.80;99.90
17252;DHT22;8742;51.716;8.790;2024-03-23T01:44:32;6.80;99.90
17252;DHT22;8742;51.716;8.790;2024-03-23T01:47:01;6.80;99.90
17252;DHT22;8742;51.716;8.790;2024-03-23T01:49:27;6.80;99.90
17252;DHT22;8742;51.716;8.790;2024-03-23T01:51:54;6.80;99.90
17252;DHT22;8742;51.716;8.790;2024-03-23T01:54:20;6.80;99.90
17252;DHT22;8742;51.716;8.790;2024-03-23T01:56:47;6.80;99.90
17252;DHT22;8742;51.716;8.790;2024-03-23T01:59:14;6.80;99.90
17252;DHT22;8742;51.716;8.790;2024-03-23T02:01:41;6.90;99.90
17252;DHT22;8742;51.716;8.790;2024-03-23T02:04:08;6.80;99.90
17252;DHT22;8742;51.716;8.790;2024-03-23T02:06:35;6.80;99.90
17252;DHT22;8742;51.716;8.790;2024-03-23T02:09:01;6.80;99.90
17252;DHT22;8742;51.716;8.790;2024-03-23T02:11:29;6.80;99.90
17252;DHT22;8742;51.716;8.790;2024-03-23T02:13:55;6.80;99.90
17252;DHT22;8742;51.716;8.790;2024-03-23T02:16:21;6.80;99.90
17252;DHT22;8742;51.716;8.790;2024-03-23T02:18:47;6.80;99.90
17252;DHT22;8742;51.716;8.790;2024-03-23T02:21:16;6.80;99.90
17252;DHT22;8742;51.716;8.790;2024-03-23T02:23:43;6.80;99.90
17252;DHT22;8742;51.716;8.790;2024-03-23T02:26:10;6.80;99.90
17252;DHT22;8742;51.716;8.790;2024-03-23T02:28:35;6.80;99.90
17252;DHT22;8742;51.716;8.790;2024-03-23T02:31:03;6.80;99.90
17252;DHT22;8742;51.716;8.790;2024-03-23T02:33:30;6.80;99.90
17252;DHT22;8742;51.716;8.790;2024-03-23T02:35:57;6.80;99.90
17252;DHT22;8742;51.716;8.790;2024-03-23T02:38:23;6.80;99.90
17252;DHT22;8742;51.716;8.790;2024-03-23T02:40:51;6.80;99.90
17252;DHT22;8742;51.716;8.790;2024-03-23T02:43:17;6.80;99.90
17252;DHT22;8742;51.716;8.790;2024-03-23T02:45:44;6.80;99.90
17252;DHT22;8742;51.716;8.790;2024-03-23T02:48:10;6.80;99.90
17252;DHT22;8742;51.716;8.790;2024-03-23T02:50:37;6.80;99.90
17252;DHT22;8742;51.716;8.790;2024-03-23T02:53:03;6.80;99.90
17252;DHT22;8742;51.716;8.790;2024-03-23T02:55:30;6.80;99.90
17252;DHT22;8742;51.716;8.790;2024-03-23T02:57:57;6.80;99.90
17252;DHT22;8742;51.716;8.790;2024-03-23T03:00:27;6.80;99.90
17252;DHT22;8742;51.716;8.790;2024-03-23T03:02:53;6.70;99.90
17252;DHT22;8742;51.716;8.790;2024-03-23T03:05:21;6.70;99.90
17252;DHT22;8742;51.716;8.790;2024-03-23T03:07:47;6.70;99.90
17252;DHT22;8742;51.716;8.790;2024-03-23T03:10:14;6.70;99.90
17252;DHT22;8742;51.716;8.790;2024-03-23T03:12:40;6.60;99.90
17252;DHT22;8742;51.716;8.790;2024-03-23T03:15:09;6.60;99.90
17252;DHT22;8742;51.716;8.790;2024-03-23T03:17:35;6.60;99.90
17252;DHT22;8742;51.716;8.790;2024-03-23T03:20:02;6.50;99.90
17252;DHT22;8742;51.716;8.790;2024-03-23T03:22:28;6.50;99.90
17252;DHT22;8742;51.716;8.790;2024-03-23T03:24:55;6.50;99.90
17252;DHT22;8742;51.716;8.790;2024-03-23T03:27:21;6.40;99.90
17252;DHT22;8742;51.716;8.790;2024-03-23T03:29:48;6.40;99.90
17252;DHT22;8742;51.716;8.790;2024-03-23T03:32:15;6.30;99.90
17252;DHT22;8742;51.716;8.790;2024-03-23T03:34:42;6.30;99.90
17252;DHT22;8742;51.716;8.790;2024-03-23T03:37:08;6.30;99.90
17252;DHT22;8742;51.716;8.790;2024-03-23T03:39:35;6.30;99.90
17252;DHT22;8742;51.716;8.790;2024-03-23T03:42:01;6.30;99.90
17252;DHT22;8742;51.716;8.790;2024-03-23T03:44:32;6.20;99.90
17252;DHT22;8742;51.716;8.790;2024-03-23T03:46:58;6.20;99.90
17252;DHT22;8742;51.716;8.790;2024-03-23T03:49:26;6.20;99.90
17252;DHT22;8742;51.716;8.790;2024-03-23T03:51:52;6.20;99.90
17252;DHT22;8742;51.716;8.790;2024-03-23T03:54:19;6.10;99.90
17252;DHT22;8742;51.716;8.790;2024-03-23T03:56:45;6.10;99.90
17252;DHT22;8742;51.716;8.790;2024-03-23T03:59:12;6.10;99.90
17252;DHT22;8742;51.716;8.790;2024-03-23T04:01:37;6.10;99.90
17252;DHT22;8742;51.716;8.790;2024-03-23T04:04:04;6.10;99.90
17252;DHT22;8742;51.716;8.790;2024-03-23T04:06:31;6.10;99.90
17252;DHT22;8742;51.716;8.790;2024-03-23T04:08:59;6.10;99.90
17252;DHT22;8742;51.716;8.790;2024-03-23T04:11:25;6.10;99.90
17252;DHT22;8742;51.716;8.790;2024-03-23T04:13:52;6.10;99.90
17252;DHT22;8742;51.716;8.790;2024-03-23T04:16:26;6.10;99.90
17252;DHT22;8742;51.716;8.790;2024-03-23T04:18:53;6.00;99.90
17252;DHT22;8742;51.716;8.790;2024-03-23T04:21:19;6.00;99.90
17252;DHT22;8742;51.716;8.790;2024-03-23T04:23:48;5.90;99.90
17252;DHT22;8742;51.716;8.790;2024-03-23T04:26:14;5.90;99.90
17252;DHT22;8742;51.716;8.790;2024-03-23T04:28:41;5.90;99.90
17252;DHT22;8742;51.716;8.790;2024-03-23T04:31:08;5.80;99.90
17252;DHT22;8742;51.716;8.790;2024-03-23T04:33:35;5.80;99.90
17252;DHT22;8742;51.716;8.790;2024-03-23T04:36:01;5.80;99.90
17252;DHT22;8742;51.716;8.790;2024-03-23T04:38:29;5.80;99.90
17252;DHT22;8742;51.716;8.790;2024-03-23T04:40:58;5.70;99.90
17252;DHT22;8742;51.716;8.790;2024-03-23T04:43:25;5.70;99.90
17252;DHT22;8742;51.716;8.790;2024-03-23T04:45:52;5.70;99.90
17252;DHT22;8742;51.716;8.790;2024-03-23T04:48:20;5.60;99.90
17252;DHT22;8742;51.716;8.790;2024-03-23T04:50:47;5.60;99.90
17252;DHT22;8742;51.716;8.790;2024-03-23T04:53:14;5.60;99.90
17252;DHT22;8742;51.716;8.790;2024-03-23T04:55:42;5.50;99.90
17252;DHT22;8742;51.716;8.790;2024-03-23T04:58:11;5.50;99.90
17252;DHT22;8742;51.716;8.790;2024-03-23T05:00:36;5.50;99.90
17252;DHT22;8742;51.716;8.790;2024-03-23T05:03:04;5.40;99.90
17252;DHT22;8742;51.716;8.790;2024-03-23T05:05:30;5.40;99.90
17252;DHT22;8742;51.716;8.790;2024-03-23T05:07:56;5.40;99.90
17252;DHT22;8742;51.716;8.790;2024-03-23T05:10:22;5.30;99.90
17252;DHT22;8742;51.716;8.790;2024-03-23T05:12:49;5.30;99.90
17252;DHT22;8742;51.716;8.790;2024-03-23T05:15:18;5.30;99.90
17252;DHT22;8742;51.716;8.790;2024-03-23T05:17:44;5.30;99.90
17252;DHT22;8742;51.716;8.790;2024-03-23T05:20:11;5.20;99.90
17252;DHT22;8742;51.716;8.790;2024-03-23T05:22:38;5.20;99.90
17252;DHT22;8742;51.716;8.790;2024-03-23T05:25:05;5.20;99.90
17252;DHT22;8742;51.716;8.790;2024-03-23T05:27:32;5.20;99.90
17252;DHT22;8742;51.716;8.790;2024-03-23T05:29:59;5.20;99.90
17252;DHT22;8742;51.716;8.790;2024-03-23T05:32:26;5.20;99.90
17252;DHT22;8742;51.716;8.790;2024-03-23T05:34:54;5.20;99.90
17252;DHT22;8742;51.716;8.790;2024-03-23T05:37:22;5.20;99.90
17252;DHT22;8742;51.716;8.790;2024-03-23T05:39:49;5.20;99.90
17252;DHT22;8742;51.716;8.790;2024-03-23T05:42:15;5.20;99.90
17252;DHT22;8742;51.716;8.790;2024-03-23T05:44:43;5.20;99.90
17252;DHT22;8742;51.716;8.790;2024-03-23T05:47:09;5.20;99.90
17252;DHT22;8742;51.716;8.790;2024-03-23T05:49:38;5.20;99.90
17252;DHT22;8742;51.716;8.790;2024-03-23T05:52:04;5.20;99.90
17252;DHT22;8742;51.716;8.790;2024-03-23T05:54:31;5.20;99.90
17252;DHT22;8742;51.716;8.790;2024-03-23T05:56:57;5.20;99.90
17252;DHT22;8742;51.716;8.790;2024-03-23T05:59:24;5.20;99.90
17252;DHT22;8742;51.716;8.790;2024-03-23T06:01:50;5.20;99.90
17252;DHT22;8742;51.716;8.790;2024-03-23T06:04:17;5.20;99.90
17252;DHT22;8742;51.716;8.790;2024-03-23T06:06:45;5.20;99.90
17252;DHT22;8742;51.716;8.790;2024-03-23T06:09:12;5.20;99.90
17252;DHT22;8742;51.716;8.790;2024-03-23T06:11:38;5.20;99.90
17252;DHT22;8742;51.716;8.790;2024-03-23T06:14:05;5.20;99.90
17252;DHT22;8742;51.716;8.790;2024-03-23T06:16:31;5.30;99.90
17252;DHT22;8742;51.716;8.790;2024-03-23T06:18:58;5.30;99.90
17252;DHT22;8742;51.716;8.790;2024-03-23T06:21:24;5.30;99.90
17252;DHT22;8742;51.716;8.790;2024-03-23T06:23:53;5.40;99.90
17252;DHT22;8742;51.716;8.790;2024-03-23T06:26:19;5.40;99.90
17252;DHT22;8742;51.716;8.790;2024-03-23T06:28:46;5.40;99.90
17252;DHT22;8742;51.716;8.790;2024-03-23T06:31:12;5.40;99.90
17252;DHT22;8742;51.716;8.790;2024-03-23T06:33:39;5.50;99.90
17252;DHT22;8742;51.716;8.790;2024-03-23T06:36:06;5.50;99.90
17252;DHT22;8742;51.716;8.790;2024-03-23T06:38:35;5.50;99.90
17252;DHT22;8742;51.716;8.790;2024-03-23T06:41:04;5.60;99.90
17252;DHT22;8742;51.716;8.790;2024-03-23T06:43:31;5.60;99.90
17252;DHT22;8742;51.716;8.790;2024-03-23T06:45:57;5.60;99.90
17252;DHT22;8742;51.716;8.790;2024-03-23T06:48:24;5.70;99.90
17252;DHT22;8742;51.716;8.790;2024-03-23T06:50:55;5.70;99.90
17252;DHT22;8742;51.716;8.790;2024-03-23T06:53:22;5.70;99.90
17252;DHT22;8742;51.716;8.790;2024-03-23T06:55:51;5.70;99.90
17252;DHT22;8742;51.716;8.790;2024-03-23T06:58:20;5.70;99.90
17252;DHT22;8742;51.716;8.790;2024-03-23T07:00:46;5.70;99.90
17252;DHT22;8742;51.716;8.790;2024-03-23T07:03:14;5.60;99.90
17252;DHT22;8742;51.716;8.790;2024-03-23T07:05:39;5.70;99.90
17252;DHT22;8742;51.716;8.790;2024-03-23T07:08:07;5.70;99.90
17252;DHT22;8742;51.716;8.790;2024-03-23T07:10:33;5.70;99.90
17252;DHT22;8742;51.716;8.790;2024-03-23T07:13:01;5.80;99.90
17252;DHT22;8742;51.716;8.790;2024-03-23T07:15:28;5.80;99.90
17252;DHT22;8742;51.716;8.790;2024-03-23T07:17:55;5.80;99.90
17252;DHT22;8742;51.716;8.790;2024-03-23T07:20:21;5.80;99.90
17252;DHT22;8742;51.716;8.790;2024-03-23T07:22:48;5.90;99.90
17252;DHT22;8742;51.716;8.790;2024-03-23T07:25:14;5.90;99.90
17252;DHT22;8742;51.716;8.790;2024-03-23T07:27:42;6.00;99.90
17252;DHT22;8742;51.716;8.790;2024-03-23T07:30:08;6.10;99.90
17252;DHT22;8742;51.716;8.790;2024-03-23T07:32:37;6.10;99.90
17252;DHT22;8742;51.716;8.790;2024-03-23T07:35:03;6.20;99.90
17252;DHT22;8742;51.716;8.790;2024-03-23T07:37:31;6.30;99.90
17252;DHT22;8742;51.716;8.790;2024-03-23T07:39:57;6.30;99.90
17252;DHT22;8742;51.716;8.790;2024-03-23T07:42:25;6.50;99.90
17252;DHT22;8742;51.716;8.790;2024-03-23T07:44:52;6.50;99.90
17252;DHT22;8742;51.716;8.790;2024-03-23T07:47:20;6.60;99.90
17252;DHT22;8742;51.716;8.790;2024-03-23T07:49:47;6.70;99.90
17252;DHT22;8742;51.716;8.790;2024-03-23T07:52:14;6.70;99.90
17252;DHT22;8742;51.716;8.790;2024-03-23T07:54:40;6.70;99.90
17252;DHT22;8742;51.716;8.790;2024-03-23T07:57:07;6.80;99.90
17252;DHT22;8742;51.716;8.790;2024-03-23T07:59:33;6.80;99.90
17252;DHT22;8742;51.716;8.790;2024-03-23T08:01:59;6.90;99.90
17252;DHT22;8742;51.716;8.790;2024-03-23T08:04:27;7.10;99.90
17252;DHT22;8742;51.716;8.790;2024-03-23T08:06:56;7.20;99.90
17252;DHT22;8742;51.716;8.790;2024-03-23T08:09:22;7.30;99.90
17252;DHT22;8742;51.716;8.790;2024-03-23T08:11:49;7.30;99.90
17252;DHT22;8742;51.716;8.790;2024-03-23T08:14:15;7.30;99.90
17252;DHT22;8742;51.716;8.790;2024-03-23T08:16:42;7.30;99.90
17252;DHT22;8742;51.716;8.790;2024-03-23T08:19:14;7.20;99.90
17252;DHT22;8742;51.716;8.790;2024-03-23T08:21:40;7.20;99.90
17252;DHT22;8742;51.716;8.790;2024-03-23T08:24:08;7.30;99.90
17252;DHT22;8742;51.716;8.790;2024-03-23T08:26:35;7.50;99.90
17252;DHT22;8742;51.716;8.790;2024-03-23T08:29:03;7.80;99.90
17252;DHT22;8742;51.716;8.790;2024-03-23T08:31:30;8.00;99.90
17252;DHT22;8742;51.716;8.790;2024-03-23T08:33:55;8.20;99.90
17252;DHT22;8742;51.716;8.790;2024-03-23T08:36:22;8.30;99.90
17252;DHT22;8742;51.716;8.790;2024-03-23T08:38:49;8.30;99.90
17252;DHT22;8742;51.716;8.790;2024-03-23T08:41:20;8.30;99.90
17252;DHT22;8742;51.716;8.790;2024-03-23T08:43:46;8.30;99.90
17252;DHT22;8742;51.716;8.790;2024-03-23T08:46:14;8.40;99.90
17252;DHT22;8742;51.716;8.790;2024-03-23T08:48:42;8.60;99.90
17252;DHT22;8742;51.716;8.790;2024-03-23T08:51:11;8.60;99.90
17252;DHT22;8742;51.716;8.790;2024-03-23T08:53:37;8.60;99.90
17252;DHT22;8742;51.716;8.790;2024-03-23T08:56:05;8.70;99.90
17252;DHT22;8742;51.716;8.790;2024-03-23T08:58:33;9.20;99.90
17252;DHT22;8742;51.716;8.790;2024-03-23T09:01:04;9.60;99.90
17252;DHT22;8742;51.716;8.790;2024-03-23T09:03:30;9.70;99.90
17252;DHT22;8742;51.716;8.790;2024-03-23T09:05:57;9.50;99.90
17252;DHT22;8742;51.716;8.790;2024-03-23T09:08:24;9.30;99.90
17252;DHT22;8742;51.716;8.790;2024-03-23T09:10:52;9.30;99.90
17252;DHT22;8742;51.716;8.790;2024-03-23T09:13:17;9.20;99.90
17252;DHT22;8742;51.716;8.790;2024-03-23T09:15:50;9.40;99.90
17252;DHT22;8742;51.716;8.790;2024-03-23T09:18:17;9.90;99.90
17252;DHT22;8742;51.716;8.790;2024-03-23T09:20:43;10.40;99.90
17252;DHT22;8742;51.716;8.790;2024-03-23T09:23:09;10.50;99.90
17252;DHT22;8742;51.716;8.790;2024-03-23T09:25:37;10.50;99.90
17252;DHT22;8742;51.716;8.790;2024-03-23T09:28:04;10.50;99.90
17252;DHT22;8742;51.716;8.790;2024-03-23T09:30:32;10.90;99.90
17252;DHT22;8742;51.716;8.790;2024-03-23T09:32:59;11.10;99.90
17252;DHT22;8742;51.716;8.790;2024-03-23T09:35:26;11.00;99.90
17252;DHT22;8742;51.716;8.790;2024-03-23T09:37:52;11.50;99.90
17252;DHT22;8742;51.716;8.790;2024-03-23T09:40:20;11.90;99.90
17252;DHT22;8742;51.716;8.790;2024-03-23T09:42:50;11.80;99.90
17252;DHT22;8742;51.716;8.790;2024-03-23T09:45:19;11.50;99.90
17252;DHT22;8742;51.716;8.790;2024-03-23T09:47:46;11.10;99.90
17252;DHT22;8742;51.716;8.790;2024-03-23T09:50:15;10.80;99.90
17252;DHT22;8742;51.716;8.790;2024-03-23T09:52:41;10.40;99.90
17252;DHT22;8742;51.716;8.790;2024-03-23T09:55:08;10.00;99.90
17252;DHT22;8742;51.716;8.790;2024-03-23T09:57:34;9.90;99.90
17252;DHT22;8742;51.716;8.790;2024-03-23T10:00:01;9.80;99.90
17252;DHT22;8742;51.716;8.790;2024-03-23T10:02:28;9.60;99.90
17252;DHT22;8742;51.716;8.790;2024-03-23T10:04:55;9.50;99.90
17252;DHT22;8742;51.716;8.790;2024-03-23T10:07:23;9.50;99.90
17252;DHT22;8742;51.716;8.790;2024-03-23T10:09:51;10.50;99.90
17252;DHT22;8742;51.716;8.790;2024-03-23T10:12:17;11.50;99.90
17252;DHT22;8742;51.716;8.790;2024-03-23T10:14:45;12.20;99.90
17252;DHT22;8742;51.716;8.790;2024-03-23T10:17:16;13.00;99.90
17252;DHT22;8742;51.716;8.790;2024-03-23T10:19:44;13.30;99.90
17252;DHT22;8742;51.716;8.790;2024-03-23T10:22:13;13.40;99.90
17252;DHT22;8742;51.716;8.790;2024-03-23T10:24:42;13.50;99.90
17252;DHT22;8742;51.716;8.790;2024-03-23T10:27:08;13.60;99.90
17252;DHT22;8742;51.716;8.790;2024-03-23T10:29:35;13.60;99.90
17252;DHT22;8742;51.716;8.790;2024-03-23T10:32:11;13.40;99.90
17252;DHT22;8742;51.716;8.790;2024-03-23T10:34:39;13.20;99.90
17252;DHT22;8742;51.716;8.790;2024-03-23T10:37:05;13.00;99.90
17252;DHT22;8742;51.716;8.790;2024-03-23T10:39:33;13.00;99.90
17252;DHT22;8742;51.716;8.790;2024-03-23T10:42:02;12.90;99.90
17252;DHT22;8742;51.716;8.790;2024-03-23T10:44:30;13.00;99.90
17252;DHT22;8742;51.716;8.790;2024-03-23T10:46:57;13.10;99.90
17252;DHT22;8742;51.716;8.790;2024-03-23T10:49:27;12.80;99.90
17252;DHT22;8742;51.716;8.790;2024-03-23T10:51:56;12.40;99.90
17252;DHT22;8742;51.716;8.790;2024-03-23T10:54:24;11.90;99.90
17252;DHT22;8742;51.716;8.790;2024-03-23T10:57:03;11.40;99.90
17252;DHT22;8742;51.716;8.790;2024-03-23T10:59:33;10.60;99.90
17252;DHT22;8742;51.716;8.790;2024-03-23T11:02:00;9.50;99.90
17252;DHT22;8742;51.716;8.790;2024-03-23T11:04:32;8.50;99.90
17252;DHT22;8742;51.716;8.790;2024-03-23T11:06:59;7.70;99.90
17252;DHT22;8742;51.716;8.790;2024-03-23T11:09:38;7.00;99.90
17252;DHT22;8742;51.716;8.790;2024-03-23T11:12:24;6.40;99.90
17252;DHT22;8742;51.716;8.790;2024-03-23T11:14:54;6.00;99.90
17252;DHT22;8742;51.716;8.790;2024-03-23T11:17:21;5.80;99.90
17252;DHT22;8742;51.716;8.790;2024-03-23T11:19:53;5.80;99.90
17252;DHT22;8742;51.716;8.790;2024-03-23T11:22:37;5.90;99.90
17252;DHT22;8742;51.716;8.790;2024-03-23T11:25:15;6.00;99.90
17252;DHT22;8742;51.716;8.790;2024-03-23T11:27:42;6.10;99.90
17252;DHT22;8742;51.716;8.790;2024-03-23T11:30:12;6.10;99.90
17252;DHT22;8742;51.716;8.790;2024-03-23T11:32:39;6.00;99.90
17252;DHT22;8742;51.716;8.790;2024-03-23T11:35:06;6.00;99.90
17252;DHT22;8742;51.716;8.790;2024-03-23T11:37:33;5.80;99.90
17252;DHT22;8742;51.716;8.790;2024-03-23T11:39:59;5.60;99.90
17252;DHT22;8742;51.716;8.790;2024-03-23T11:42:27;5.70;99.90
17252;DHT22;8742;51.716;8.790;2024-03-23T11:44:54;6.40;99.90
17252;DHT22;8742;51.716;8.790;2024-03-23T11:47:21;7.80;99.90
17252;DHT22;8742;51.716;8.790;2024-03-23T11:49:48;9.00;99.90
17252;DHT22;8742;51.716;8.790;2024-03-23T11:52:16;9.90;99.90
17252;DHT22;8742;51.716;8.790;2024-03-23T11:54:43;10.30;99.90
17252;DHT22;8742;51.716;8.790;2024-03-23T11:57:09;10.70;99.90
17252;DHT22;8742;51.716;8.790;2024-03-23T11:59:38;11.60;99.90
17252;DHT22;8742;51.716;8.790;2024-03-23T12:02:08;12.30;99.90
17252;DHT22;8742;51.716;8.790;2024-03-23T12:04:37;12.50;99.90
17252;DHT22;8742;51.716;8.790;2024-03-23T12:07:11;12.50;99.90
17252;DHT22;8742;51.716;8.790;2024-03-23T12:09:38;12.90;99.90
17252;DHT22;8742;51.716;8.790;2024-03-23T12:12:10;12.80;99.90
17252;DHT22;8742;51.716;8.790;2024-03-23T12:14:37;12.50;99.90
17252;DHT22;8742;51.716;8.790;2024-03-23T12:17:11;11.90;99.90
17252;DHT22;8742;51.716;8.790;2024-03-23T12:19:40;11.20;99.90
17252;DHT22;8742;51.716;8.790;2024-03-23T12:22:07;10.50;99.90
17252;DHT22;8742;51.716;8.790;2024-03-23T12:24:34;9.80;99.90
17252;DHT22;8742;51.716;8.790;2024-03-23T12:27:04;9.20;99.90
17252;DHT22;8742;51.716;8.790;2024-03-23T12:29:31;8.80;99.90
17252;DHT22;8742;51.716;8.790;2024-03-23T12:31:59;8.50;99.90
17252;DHT22;8742;51.716;8.790;2024-03-23T12:34:26;8.30;99.90
17252;DHT22;8742;51.716;8.790;2024-03-23T12:36:53;8.30;99.90
17252;DHT22;8742;51.716;8.790;2024-03-23T12:39:20;8.80;99.90
17252;DHT22;8742;51.716;8.790;2024-03-23T12:41:47;9.30;99.90
17252;DHT22;8742;51.716;8.790;2024-03-23T12:44:14;9.50;99.90
17252;DHT22;8742;51.716;8.790;2024-03-23T12:46:40;9.40;99.90
17252;DHT22;8742;51.716;8.790;2024-03-23T12:49:07;9.30;99.90
17252;DHT22;8742;51.716;8.790;2024-03-23T12:51:34;9.20;99.90
17252;DHT22;8742;51.716;8.790;2024-03-23T12:54:03;8.90;99.90
17252;DHT22;8742;51.716;8.790;2024-03-23T12:56:30;8.60;99.90
17252;DHT22;8742;51.716;8.790;2024-03-23T12:58:56;8.30;99.90
17252;DHT22;8742;51.716;8.790;2024-03-23T13:01:23;7.90;99.90
17252;DHT22;8742;51.716;8.790;2024-03-23T13:03:50;7.60;99.90
17252;DHT22;8742;51.716;8.790;2024-03-23T13:06:17;7.40;99.90
17252;DHT22;8742;51.716;8.790;2024-03-23T13:08:44;7.40;99.90
17252;DHT22;8742;51.716;8.790;2024-03-23T13:11:13;7.60;99.90
17252;DHT22;8742;51.716;8.790;2024-03-23T13:13:39;7.70;99.90
17252;DHT22;8742;51.716;8.790;2024-03-23T13:16:07;7.80;99.90
17252;DHT22;8742;51.716;8.790;2024-03-23T13:18:34;7.90;99.90
17252;DHT22;8742;51.716;8.790;2024-03-23T13:21:00;8.00;99.90
17252;DHT22;8742;51.716;8.790;2024-03-23T13:23:26;8.00;99.90
17252;DHT22;8742;51.716;8.790;2024-03-23T13:25:54;8.30;99.90
17252;DHT22;8742;51.716;8.790;2024-03-23T13:28:22;9.10;99.90
17252;DHT22;8742;51.716;8.790;2024-03-23T13:30:52;10.20;99.90
17252;DHT22;8742;51.716;8.790;2024-03-23T13:33:18;11.40;99.90
17252;DHT22;8742;51.716;8.790;2024-03-23T13:35:52;12.40;99.90
17252;DHT22;8742;51.716;8.790;2024-03-23T13:38:18;13.20;99.90
17252;DHT22;8742;51.716;8.790;2024-03-23T13:40:52;13.80;99.90
17252;DHT22;8742;51.716;8.790;2024-03-23T13:43:18;14.50;99.90
17252;DHT22;8742;51.716;8.790;2024-03-23T13:45:47;14.90;99.90
17252;DHT22;8742;51.716;8.790;2024-03-23T13:48:13;15.20;99.90
17252;DHT22;8742;51.716;8.790;2024-03-23T13:50:40;15.60;99.90
17252;DHT22;8742;51.716;8.790;2024-03-23T13:53:06;16.10;99.90
17252;DHT22;8742;51.716;8.790;2024-03-23T13:55:33;16.30;99.90
17252;DHT22;8742;51.716;8.790;2024-03-23T13:57:59;16.50;99.90
17252;DHT22;8742;51.716;8.790;2024-03-23T14:00:26;16.50;99.90
17252;DHT22;8742;51.716;8.790;2024-03-23T14:02:53;16.40;99.90
17252;DHT22;8742;51.716;8.790;2024-03-23T14:05:20;16.20;99.90
17252;DHT22;8742;51.716;8.790;2024-03-23T14:07:46;16.10;99.90
17252;DHT22;8742;51.716;8.790;2024-03-23T14:10:13;16.20;99.90
17252;DHT22;8742;51.716;8.790;2024-03-23T14:12:39;16.40;99.90
17252;DHT22;8742;51.716;8.790;2024-03-23T14:15:07;16.20;99.90
17252;DHT22;8742;51.716;8.790;2024-03-23T14:17:33;15.70;99.90
17252;DHT22;8742;51.716;8.790;2024-03-23T14:20:02;15.40;99.90
17252;DHT22;8742;51.716;8.790;2024-03-23T14:22:30;14.80;99.90
17252;DHT22;8742;51.716;8.790;2024-03-23T14:24:57;13.80;99.90
17252;DHT22;8742;51.716;8.790;2024-03-23T14:27:24;12.90;99.90
17252;DHT22;8742;51.716;8.790;2024-03-23T14:29:51;11.90;99.90
17252;DHT22;8742;51.716;8.790;2024-03-23T14:32:16;10.80;99.90
17252;DHT22;8742;51.716;8.790;2024-03-23T14:34:48;9.90;99.90
17252;DHT22;8742;51.716;8.790;2024-03-23T14:37:21;9.10;99.90
17252;DHT22;8742;51.716;8.790;2024-03-23T14:39:50;8.60;99.90
17252;DHT22;8742;51.716;8.790;2024-03-23T14:42:16;8.40;99.90
17252;DHT22;8742;51.716;8.790;2024-03-23T14:44:43;9.00;99.90
17252;DHT22;8742;51.716;8.790;2024-03-23T14:47:09;10.10;99.90
17252;DHT22;8742;51.716;8.790;2024-03-23T14:49:36;11.30;99.90
17252;DHT22;8742;51.716;8.790;2024-03-23T14:52:02;12.30;99.90
17252;DHT22;8742;51.716;8.790;2024-03-23T14:54:30;13.20;99.90
17252;DHT22;8742;51.716;8.790;2024-03-23T14:56:56;13.90;99.90
17252;DHT22;8742;51.716;8.790;2024-03-23T14:59:24;14.30;99.90
17252;DHT22;8742;51.716;8.790;2024-03-23T15:01:50;14.70;99.90
17252;DHT22;8742;51.716;8.790;2024-03-23T15:04:17;15.10;99.90
17252;DHT22;8742;51.716;8.790;2024-03-23T15:06:43;15.20;99.90
17252;DHT22;8742;51.716;8.790;2024-03-23T15:09:12;14.70;99.90
17252;DHT22;8742;51.716;8.790;2024-03-23T15:11:41;13.70;99.90
17252;DHT22;8742;51.716;8.790;2024-03-23T15:14:08;12.70;99.90
17252;DHT22;8742;51.716;8.790;2024-03-23T15:16:34;11.90;99.90
17252;DHT22;8742;51.716;8.790;2024-03-23T15:19:01;11.20;99.90
17252;DHT22;8742;51.716;8.790;2024-03-23T15:21:26;10.40;99.90
17252;DHT22;8742;51.716;8.790;2024-03-23T15:23:53;9.80;99.90
17252;DHT22;8742;51.716;8.790;2024-03-23T15:26:19;9.30;99.90
17252;DHT22;8742;51.716;8.790;2024-03-23T15:28:49;9.20;99.90
17252;DHT22;8742;51.716;8.790;2024-03-23T15:31:35;9.40;99.90
17252;DHT22;8742;51.716;8.790;2024-03-23T15:34:02;9.50;99.90
17252;DHT22;8742;51.716;8.790;2024-03-23T15:36:29;9.80;99.90
17252;DHT22;8742;51.716;8.790;2024-03-23T15:38:56;10.50;99.90
17252;DHT22;8742;51.716;8.790;2024-03-23T15:41:23;11.30;99.90
17252;DHT22;8742;51.716;8.790;2024-03-23T15:43:51;12.20;99.90
17252;DHT22;8742;51.716;8.790;2024-03-23T15:46:17;12.90;99.90
17252;DHT22;8742;51.716;8.790;2024-03-23T15:48:44;13.40;99.90
17252;DHT22;8742;51.716;8.790;2024-03-23T15:51:12;13.90;99.90
17252;DHT22;8742;51.716;8.790;2024-03-23T15:53:39;14.20;99.90
17252;DHT22;8742;51.716;8.790;2024-03-23T15:56:06;14.30;99.90
17252;DHT22;8742;51.716;8.790;2024-03-23T15:58:33;14.10;99.90
17252;DHT22;8742;51.716;8.790;2024-03-23T16:01:02;13.60;99.90
17252;DHT22;8742;51.716;8.790;2024-03-23T16:03:30;13.00;99.90
17252;DHT22;8742;51.716;8.790;2024-03-23T16:05:57;12.40;99.90
17252;DHT22;8742;51.716;8.790;2024-03-23T16:08:25;11.80;99.90
17252;DHT22;8742;51.716;8.790;2024-03-23T16:10:51;11.20;99.90
17252;DHT22;8742;51.716;8.790;2024-03-23T16:13:19;10.70;99.90
17252;DHT22;8742;51.716;8.790;2024-03-23T16:15:45;10.20;99.90
17252;DHT22;8742;51.716;8.790;2024-03-23T16:18:13;9.90;99.90
17252;DHT22;8742;51.716;8.790;2024-03-23T16:20:39;9.60;99.90
17252;DHT22;8742;51.716;8.790;2024-03-23T16:23:06;9.40;99.90
17252;DHT22;8742;51.716;8.790;2024-03-23T16:25:32;9.20;99.90
17252;DHT22;8742;51.716;8.790;2024-03-23T16:27:59;9.00;99.90
17252;DHT22;8742;51.716;8.790;2024-03-23T16:30:25;8.80;99.90
17252;DHT22;8742;51.716;8.790;2024-03-23T16:32:53;8.70;99.90
17252;DHT22;8742;51.716;8.790;2024-03-23T16:35:20;8.60;99.90
17252;DHT22;8742;51.716;8.790;2024-03-23T16:37:47;8.50;99.90
17252;DHT22;8742;51.716;8.790;2024-03-23T16:40:13;8.40;99.90
17252;DHT22;8742;51.716;8.790;2024-03-23T16:42:40;8.40;99.90
17252;DHT22;8742;51.716;8.790;2024-03-23T16:45:08;8.20;99.90
17252;DHT22;8742;51.716;8.790;2024-03-23T16:47:34;8.20;99.90
17252;DHT22;8742;51.716;8.790;2024-03-23T16:50:00;8.10;99.90
17252;DHT22;8742;51.716;8.790;2024-03-23T16:52:29;8.00;99.90